createdAt,value
2019-04-07T00:00:54.268Z,100295.38
2019-04-07T00:02:55.723Z,100288.75
2019-04-07T00:04:57.325Z,100288.84
2019-04-07T00:07:00.378Z,100290.39
2019-04-07T00:09:02.733Z,100285.14
2019-04-07T00:11:04.582Z,100293.15
2019-04-07T00:13:06.088Z,100292.35
2019-04-07T00:15:08.281Z,100291.67
2019-04-07T00:17:10.527Z,100287.86
2019-04-07T00:19:12.242Z,100288.09
2019-04-07T00:21:13.747Z,100289.46
2019-04-07T00:23:15.230Z,100289.69
2019-04-07T00:25:16.687Z,100293.83
2019-04-07T00:27:18.103Z,100289.76
2019-04-07T00:29:19.601Z,100292.13
2019-04-07T00:31:21.609Z,100289.69
2019-04-07T00:33:23.051Z,100287.52
2019-04-07T00:35:30.458Z,100287.03
2019-04-07T00:37:28.294Z,100288.28
2019-04-07T00:39:29.790Z,100287.41
2019-04-07T00:41:31.163Z,100286.50
2019-04-07T00:43:32.529Z,100285.38
2019-04-07T00:45:33.980Z,100291.73
2019-04-07T00:47:35.375Z,100295.14
2019-04-07T00:49:37.402Z,100292.03
2019-04-07T00:51:38.942Z,100291.63
2019-04-07T00:53:40.887Z,100293.62
2019-04-07T00:55:42.607Z,100284.61
2019-04-07T00:57:44.119Z,100290.39
2019-04-07T00:59:46.119Z,100288.19
2019-04-07T01:01:47.741Z,100285.72
2019-04-07T01:03:49.171Z,100289.31
2019-04-07T01:05:51.058Z,100289.94
2019-04-07T01:07:52.594Z,100289.00
2019-04-07T01:09:54.127Z,100284.69
2019-04-07T01:11:55.600Z,100289.92
2019-04-07T01:13:57.027Z,100292.70
2019-04-07T01:15:58.741Z,100297.98
2019-04-07T01:18:01.070Z,100299.97
2019-04-07T01:20:06.556Z,100298.14
2019-04-07T01:22:07.907Z,100299.54
2019-04-07T01:24:09.827Z,100305.30
2019-04-07T01:26:11.382Z,100298.86
2019-04-07T01:28:13.035Z,100299.05
2019-04-07T01:30:15.059Z,100303.02
2019-04-07T01:32:16.536Z,100295.60
2019-04-07T01:34:18.463Z,100292.81
2019-04-07T01:36:19.915Z,100295.67
2019-04-07T01:38:21.350Z,100294.07
2019-04-07T01:40:23.396Z,100289.95
2019-04-07T01:42:33.426Z,100288.84
2019-04-07T01:44:46.130Z,100293.88
2019-04-07T01:46:49.529Z,100298.25
2019-04-07T01:48:55.957Z,100297.02
2019-04-07T01:50:59.354Z,100298.88
2019-04-07T01:53:02.690Z,100296.80
2019-04-07T01:55:25.807Z,100294.99
2019-04-07T01:57:35.456Z,100295.77
2019-04-07T02:02:45.550Z,100295.16
2019-04-07T02:05:27.111Z,100247.41
2019-04-07T02:08:08.678Z,100309.95
2019-04-07T02:13:33.879Z,100307.48
2019-04-07T02:16:15.657Z,100247.84
2019-04-07T02:27:24.369Z,100299.22
2019-04-07T02:32:48.432Z,100255.92
2019-04-07T02:35:30.079Z,100263.23
2019-04-07T02:38:14.968Z,100258.78
2019-04-07T02:40:55.679Z,100251.58
2019-04-07T02:43:17.937Z,100319.69
2019-04-07T02:48:48.937Z,100282.80
2019-04-07T02:54:20.650Z,100284.42
2019-04-07T02:57:02.449Z,100283.63
2019-04-07T03:02:27.170Z,100336.91
2019-04-07T03:05:02.138Z,100290.25
2019-04-07T03:10:27.205Z,100342.52
2019-04-07T03:13:09.254Z,100348.24
2019-04-07T03:18:39.609Z,100289.20
2019-04-07T03:21:20.749Z,100292.75
2019-04-07T03:24:02.021Z,100340.20
2019-04-07T03:26:43.349Z,100284.59
2019-04-07T03:29:24.518Z,100283.94
2019-04-07T03:32:07.865Z,100288.77
2019-04-07T03:34:49.569Z,100286.97
2019-04-07T03:37:39.073Z,100287.45
2019-04-07T03:39:51.254Z,100341.03
2019-04-07T03:45:22.129Z,100288.83
2019-04-07T03:50:46.380Z,100286.12
2019-04-07T03:53:28.478Z,100338.64
2019-04-07T03:56:10.246Z,100289.44
2019-04-07T03:58:52.347Z,100290.28
2019-04-07T04:01:34.056Z,100294.35
2019-04-07T04:04:16.718Z,100342.80
2019-04-07T04:06:58.270Z,100290.76
2019-04-07T04:09:41.180Z,100301.80
2019-04-07T04:12:25.646Z,100340.00
2019-04-07T04:17:30.704Z,100286.66
2019-04-07T04:19:55.199Z,100351.84
2019-04-07T04:22:38.041Z,100329.01
2019-04-07T04:25:21.229Z,100347.39
2019-04-07T04:27:36.990Z,100293.25
2019-04-07T04:29:58.259Z,100350.14
2019-04-07T04:32:19.506Z,100317.89
2019-04-07T04:34:41.028Z,100356.13
2019-04-07T04:37:02.506Z,100299.00
2019-04-07T04:39:24.831Z,100305.54
2019-04-07T04:41:47.075Z,100355.87
2019-04-07T04:43:49.164Z,100351.95
2019-04-07T04:45:53.236Z,100355.60
2019-04-07T04:47:54.752Z,100354.34
2019-04-07T04:49:56.097Z,100354.14
2019-04-07T04:51:58.674Z,100360.13
2019-04-07T04:54:00.482Z,100363.56
2019-04-07T04:56:01.916Z,100366.42
2019-04-07T04:58:04.118Z,100361.77
2019-04-07T05:00:07.483Z,100369.59
2019-04-07T05:02:09.016Z,100374.84
2019-04-07T05:04:10.425Z,100375.19
2019-04-07T05:06:11.936Z,100374.33
2019-04-07T05:08:13.414Z,100373.24
2019-04-07T05:10:14.853Z,100374.22
2019-04-07T05:12:16.344Z,100378.11
2019-04-07T05:14:17.760Z,100376.11
2019-04-07T05:16:19.732Z,100379.30
2019-04-07T05:18:21.195Z,100370.32
2019-04-07T05:20:22.936Z,100381.98
2019-04-07T05:22:24.416Z,100377.36
2019-04-07T05:24:25.864Z,100373.73
2019-04-07T05:26:27.292Z,100372.66
2019-04-07T05:28:29.339Z,100377.49
2019-04-07T05:30:31.459Z,100378.17
2019-04-07T05:32:33.390Z,100380.50
2019-04-07T05:34:35.305Z,100382.92
2019-04-07T05:36:36.990Z,100386.83
2019-04-07T05:38:38.726Z,100389.05
2019-04-07T05:40:40.981Z,100394.36
2019-04-07T05:42:42.368Z,100386.73
2019-04-07T05:44:44.362Z,100390.57
2019-04-07T05:46:49.478Z,100393.44
2019-04-07T05:48:52.031Z,100393.08
2019-04-07T05:50:53.830Z,100394.37
2019-04-07T05:52:55.293Z,100391.52
2019-04-07T05:54:56.662Z,100392.85
2019-04-07T05:57:01.178Z,100392.72
2019-04-07T05:59:01.801Z,100392.98
2019-04-07T06:01:03.276Z,100391.23
2019-04-07T06:03:08.230Z,100390.53
2019-04-07T06:05:08.348Z,100391.77
2019-04-07T06:07:10.229Z,100394.32
2019-04-07T06:09:11.692Z,100396.13
2019-04-07T06:11:13.498Z,100397.09
2019-04-07T06:13:15.756Z,100395.45
2019-04-07T06:15:20.983Z,100403.47
2019-04-07T06:17:21.172Z,100395.83
2019-04-07T06:19:22.594Z,100394.03
2019-04-07T06:21:24.336Z,100399.47
2019-04-07T06:23:27.524Z,100405.73
2019-04-07T06:25:34.042Z,100404.48
2019-04-07T06:27:32.560Z,100399.09
2019-04-07T06:29:34.457Z,100406.42
2019-04-07T06:31:35.945Z,100401.48
2019-04-07T06:33:38.241Z,100403.94
2019-04-07T06:35:43.790Z,100400.74
2019-04-07T06:37:43.903Z,100401.78
2019-04-07T06:39:49.374Z,100399.33
2019-04-07T06:41:48.908Z,100399.09
2019-04-07T06:43:50.685Z,100408.63
2019-04-07T06:45:57.353Z,100400.88
2019-04-07T06:48:07.440Z,100403.22
2019-04-07T06:50:15.763Z,100398.72
2019-04-07T06:52:34.915Z,100410.08
2019-04-07T06:54:37.717Z,100405.34
2019-04-07T06:56:41.206Z,100406.28
2019-04-07T06:58:45.016Z,100400.79
2019-04-07T07:00:49.149Z,100399.59
2019-04-07T07:03:09.300Z,100407.84
2019-04-07T07:05:24.313Z,100408.12
2019-04-07T07:07:39.763Z,100406.52
2019-04-07T07:10:01.072Z,100408.22
2019-04-07T07:12:19.877Z,100409.06
2019-04-07T07:14:41.575Z,100411.83
2019-04-07T07:16:56.554Z,100408.70
2019-04-07T07:19:16.773Z,100406.20
2019-04-07T07:21:25.865Z,100410.75
2019-04-07T07:23:35.049Z,100408.97
2019-04-07T07:25:36.424Z,100407.54
2019-04-07T07:27:40.427Z,100404.33
2019-04-07T07:29:41.090Z,100411.66
2019-04-07T07:31:42.620Z,100410.50
2019-04-07T07:33:44.744Z,100412.96
2019-04-07T07:35:49.105Z,100415.34
2019-04-07T07:37:49.958Z,100416.71
2019-04-07T07:39:51.948Z,100421.57
2019-04-07T07:41:54.009Z,100421.78
2019-04-07T07:44:00.420Z,100418.25
2019-04-07T07:45:59.049Z,100418.42
2019-04-07T07:48:00.991Z,100418.88
2019-04-07T07:50:07.065Z,100416.03
2019-04-07T07:52:08.414Z,100416.17
2019-04-07T07:54:09.972Z,100417.44
2019-04-07T07:56:13.121Z,100415.88
2019-04-07T07:58:14.626Z,100419.20
2019-04-07T08:00:16.890Z,100415.11
2019-04-07T08:02:19.932Z,100414.13
2019-04-07T08:04:24.920Z,100416.87
2019-04-07T08:06:25.101Z,100413.05
2019-04-07T08:08:26.453Z,100417.80
2019-04-07T08:10:27.844Z,100417.19
2019-04-07T08:12:32.357Z,100414.33
2019-04-07T08:14:32.618Z,100416.73
2019-04-07T08:16:34.619Z,100410.92
2019-04-07T08:18:38.710Z,100418.69
2019-04-07T08:20:42.927Z,100418.32
2019-04-07T08:22:43.767Z,100420.13
2019-04-07T08:24:49.626Z,100422.39
2019-04-07T08:26:50.328Z,100423.01
2019-04-07T08:28:53.224Z,100421.65
2019-04-07T08:30:55.666Z,100421.34
2019-04-07T08:33:17.804Z,100426.92
2019-04-07T08:36:00.129Z,100384.38
2019-04-07T08:38:41.294Z,100423.53
2019-04-07T08:41:22.428Z,100380.94
2019-04-07T08:43:43.727Z,100423.16
2019-04-07T08:46:05.998Z,100384.23
2019-04-07T08:48:51.828Z,100425.40
2019-04-07T08:51:32.479Z,100390.89
2019-04-07T08:54:17.639Z,100388.44
2019-04-07T08:56:58.278Z,100421.59
2019-04-07T08:59:42.654Z,100415.33
2019-04-07T09:02:19.224Z,100420.31
2019-04-07T09:04:41.427Z,100406.80
2019-04-07T09:07:04.191Z,100415.05
2019-04-07T09:09:48.564Z,100413.83
2019-04-07T09:12:31.993Z,100411.84
2019-04-07T09:18:22.158Z,100371.23
2019-04-07T09:23:46.783Z,100412.34
2019-04-07T09:29:10.762Z,100367.36
2019-04-07T09:34:41.535Z,100401.33
2019-04-07T09:37:24.353Z,100366.66
2019-04-07T09:40:06.027Z,100363.36
2019-04-07T09:51:10.124Z,100404.86
2019-04-07T09:53:51.323Z,100402.95
2019-04-07T09:56:33.647Z,100371.55
2019-04-07T09:59:16.784Z,100362.48
2019-04-07T10:02:38.392Z,100353.28
2019-04-07T10:08:11.981Z,100358.55
2019-04-07T10:10:50.831Z,100386.05
2019-04-07T10:13:32.503Z,100353.27
2019-04-07T10:16:14.883Z,100385.31
2019-04-07T10:18:50.952Z,100341.87
2019-04-07T10:21:32.430Z,100358.97
2019-04-07T10:35:24.742Z,100377.19
2019-04-07T10:38:05.932Z,100370.08
2019-04-07T10:40:47.113Z,100331.92
2019-04-07T10:46:12.363Z,100372.61
2019-04-07T10:48:53.702Z,100340.89
2019-04-07T10:51:35.384Z,100333.38
2019-04-07T10:54:16.636Z,100327.10
2019-04-07T10:56:57.809Z,100330.78
2019-04-07T10:59:39.052Z,100355.99
2019-04-07T11:05:03.015Z,100357.77
2019-04-07T11:07:44.264Z,100317.61
2019-04-07T11:10:34.608Z,100320.28
2019-04-07T11:16:17.402Z,100316.48
2019-04-07T11:18:58.660Z,100332.44
2019-04-07T11:21:18.160Z,100352.19
2019-04-07T11:23:59.938Z,100323.85
2019-04-07T11:26:41.796Z,100311.67
2019-04-07T11:32:12.593Z,100344.86
2019-04-07T11:37:12.923Z,100345.66
2019-04-07T11:42:44.887Z,100351.88
2019-04-07T11:50:58.704Z,100346.13
2019-04-07T11:53:39.959Z,100345.61
2019-04-07T11:56:21.762Z,100319.23
2019-04-07T11:59:03.228Z,100311.49
2019-04-07T12:01:46.873Z,100343.75
2019-04-07T12:04:27.448Z,100343.61
2019-04-07T12:07:08.958Z,100330.19
2019-04-07T12:09:50.971Z,100303.77
2019-04-07T12:12:32.219Z,100306.47
2019-04-07T12:15:14.196Z,100298.95
2019-04-07T12:17:55.672Z,100315.18
2019-04-07T12:20:33.707Z,100302.63
2019-04-07T12:23:17.080Z,100342.70
2019-04-07T12:25:56.694Z,100322.83
2019-04-07T12:28:38.708Z,100295.55
2019-04-07T12:31:19.902Z,100300.11
2019-04-07T12:34:01.103Z,100288.81
2019-04-07T12:39:25.659Z,100283.16
2019-04-07T12:42:08.363Z,100283.59
2019-04-07T12:47:38.820Z,100297.03
2019-04-07T12:50:21.000Z,100275.71
2019-04-07T12:55:57.569Z,100315.48
2019-04-07T13:01:03.748Z,100314.31
2019-04-07T13:04:00.294Z,100305.23
2019-04-07T13:12:23.625Z,100279.87
2019-04-07T13:18:10.581Z,100301.06
2019-04-07T13:20:53.179Z,100263.73
2019-04-07T13:23:36.743Z,100305.25
2019-04-07T13:26:17.660Z,100262.89
2019-04-07T13:28:58.808Z,100287.75
2019-04-07T13:34:31.164Z,100259.28
2019-04-07T13:40:15.709Z,100252.56
2019-04-07T13:43:00.720Z,100247.91
2019-04-07T13:45:44.675Z,100251.63
2019-04-07T13:54:15.419Z,100254.00
2019-04-07T13:56:56.537Z,100243.63
2019-04-07T13:59:42.646Z,100250.34
2019-04-07T14:05:05.119Z,100272.81
2019-04-07T14:07:50.078Z,100286.42
2019-04-07T14:13:11.586Z,100285.59
2019-04-07T14:15:53.196Z,100242.40
2019-04-07T14:20:52.904Z,100240.89
2019-04-07T14:23:34.321Z,100273.42
2019-04-07T14:31:53.506Z,100246.87
2019-04-07T14:34:36.392Z,100246.11
2019-04-07T14:37:18.564Z,100236.98
2019-04-07T14:39:59.957Z,100243.45
2019-04-07T14:45:24.601Z,100277.81
2019-04-07T14:48:05.732Z,100278.58
2019-04-07T14:50:47.334Z,100236.84
2019-04-07T14:53:28.665Z,100273.14
2019-04-07T14:56:29.835Z,100243.72
2019-04-07T15:02:02.027Z,100236.43
2019-04-07T15:07:26.482Z,100232.06
2019-04-07T15:10:07.709Z,100269.62
2019-04-07T15:12:48.886Z,100269.12
2019-04-07T15:15:11.774Z,100261.88
2019-04-07T15:17:53.323Z,100267.11
2019-04-07T15:20:15.608Z,100265.31
2019-04-07T15:22:51.772Z,100222.66
2019-04-07T15:25:13.337Z,100230.01
2019-04-07T15:27:34.930Z,100231.21
2019-04-07T15:29:56.684Z,100228.37
2019-04-07T15:32:18.156Z,100224.67
2019-04-07T15:34:19.861Z,100259.30
2019-04-07T15:36:41.474Z,100256.02
2019-04-07T15:39:28.008Z,100221.64
2019-04-07T15:42:09.306Z,100220.16
2019-04-07T15:44:50.868Z,100262.72
2019-04-07T15:47:12.241Z,100236.72
2019-04-07T15:49:34.320Z,100228.06
2019-04-07T15:52:17.458Z,100233.10
2019-04-07T15:55:00.682Z,100263.47
2019-04-07T15:57:43.929Z,100237.77
2019-04-07T16:00:26.162Z,100265.42
2019-04-07T16:02:49.363Z,100270.73
2019-04-07T16:05:38.039Z,100263.41
2019-04-07T16:08:13.740Z,100236.47
2019-04-07T16:10:35.895Z,100272.92
2019-04-07T16:13:18.456Z,100269.47
2019-04-07T16:15:42.796Z,100271.42
2019-04-07T16:18:23.256Z,100269.34
2019-04-07T16:21:09.051Z,100269.73
2019-04-07T16:23:42.990Z,100246.47
2019-04-07T16:26:04.303Z,100283.59
2019-04-07T16:28:26.154Z,100247.37
2019-04-07T16:30:51.457Z,100282.38
2019-04-07T16:33:34.116Z,100238.84
2019-04-07T16:36:14.966Z,100284.02
2019-04-07T16:38:38.547Z,100279.08
2019-04-07T16:41:21.254Z,100238.56
2019-04-07T16:43:43.194Z,100244.63
2019-04-07T16:46:25.611Z,100250.22
2019-04-07T16:48:46.849Z,100251.05
2019-04-07T16:51:08.128Z,100288.78
2019-04-07T16:53:30.856Z,100256.79
2019-04-07T16:56:13.201Z,100294.98
2019-04-07T16:58:56.539Z,100290.09
2019-04-07T17:01:31.822Z,100293.13
2019-04-07T17:03:53.150Z,100257.99
2019-04-07T17:06:14.700Z,100261.43
2019-04-07T17:08:36.112Z,100270.31
2019-04-07T17:10:57.407Z,100270.39
2019-04-07T17:13:28.001Z,100263.73
2019-04-07T17:15:43.099Z,100306.48
2019-04-07T17:18:44.795Z,100266.47
2019-04-07T17:21:28.604Z,100315.88
2019-04-07T17:24:11.109Z,100281.42
2019-04-07T17:26:35.350Z,100321.78
2019-04-07T17:29:19.027Z,100290.39
2019-04-07T17:32:01.857Z,100327.25
2019-04-07T17:34:43.464Z,100330.62
2019-04-07T17:37:28.041Z,100338.87
2019-04-07T17:40:28.738Z,100292.70
2019-04-07T17:42:53.081Z,100300.73
2019-04-07T17:48:40.991Z,100306.70
2019-04-07T17:51:21.855Z,100350.41
2019-04-07T17:59:44.839Z,100319.88
2019-04-07T18:02:03.338Z,100371.55
2019-04-07T18:04:49.228Z,100360.31
2019-04-07T18:10:10.321Z,100335.40
2019-04-07T18:12:51.598Z,100332.34
2019-04-07T18:15:36.273Z,100343.27
2019-04-07T18:18:18.778Z,100381.28
2019-04-07T18:20:59.609Z,100382.87
2019-04-07T18:23:40.863Z,100341.47
2019-04-07T18:29:11.041Z,100396.86
2019-04-07T18:31:53.049Z,100353.41
2019-04-07T18:34:35.068Z,100407.84
2019-04-07T18:37:16.884Z,100373.16
2019-04-07T18:40:01.364Z,100391.50
2019-04-07T18:42:43.015Z,100413.53
2019-04-07T18:45:25.251Z,100417.81
2019-04-07T18:48:06.468Z,100419.91
2019-04-07T18:50:48.105Z,100420.64
2019-04-07T18:53:29.389Z,100392.25
2019-04-07T18:55:49.183Z,100427.59
2019-04-07T18:58:31.203Z,100393.81
2019-04-07T19:01:12.527Z,100405.94
2019-04-07T19:03:53.735Z,100433.82
2019-04-07T19:06:36.929Z,100436.06
2019-04-07T19:09:18.874Z,100441.00
2019-04-07T19:12:07.554Z,100400.20
2019-04-07T19:14:48.128Z,100394.48
2019-04-07T19:20:15.501Z,100397.64
2019-04-07T19:22:56.689Z,100400.67
2019-04-07T19:28:26.800Z,100400.61
2019-04-07T19:31:08.650Z,100441.72
2019-04-07T19:33:50.526Z,100447.53
2019-04-07T19:36:31.786Z,100450.67
2019-04-07T19:39:13.045Z,100456.30
2019-04-07T19:44:39.339Z,100400.33
2019-04-07T19:47:20.614Z,100455.06
2019-04-07T19:55:39.657Z,100406.87
2019-04-07T19:58:21.746Z,100405.24
2019-04-07T20:01:03.403Z,100453.39
2019-04-07T20:03:44.829Z,100411.16
2019-04-07T20:12:00.588Z,100411.50
2019-04-07T20:15:06.964Z,100426.54
2019-04-07T20:17:43.979Z,100426.20
2019-04-07T20:20:25.809Z,100455.41
2019-04-07T20:23:07.027Z,100417.28
2019-04-07T20:25:50.784Z,100403.02
2019-04-07T20:28:53.043Z,100405.45
2019-04-07T20:31:34.388Z,100456.61
2019-04-07T20:34:16.349Z,100416.17
2019-04-07T20:36:57.815Z,100416.98
2019-04-07T20:39:39.183Z,100415.16
2019-04-07T20:42:20.339Z,100454.56
2019-04-07T20:45:05.587Z,100427.20
2019-04-07T20:47:44.629Z,100459.89
2019-04-07T20:50:26.179Z,100461.73
2019-04-07T20:53:14.785Z,100415.38
2019-04-07T20:55:50.738Z,100426.20
2019-04-07T20:58:28.316Z,100414.38
2019-04-07T21:01:11.304Z,100418.28
2019-04-07T21:03:52.956Z,100426.41
2019-04-07T21:06:34.192Z,100421.98
2019-04-07T21:09:15.346Z,100425.02
2019-04-07T21:11:56.885Z,100469.77
2019-04-07T21:26:31.962Z,100438.45
2019-04-07T21:29:13.479Z,100435.78
2019-04-07T21:31:54.655Z,100457.69
2019-04-07T21:40:15.477Z,100443.23
2019-04-07T21:42:56.787Z,100440.06
2019-04-07T21:45:43.688Z,100487.81
2019-04-07T21:48:21.886Z,100495.19
2019-04-07T21:53:53.056Z,100459.41
2019-04-07T21:56:34.782Z,100444.00
2019-04-07T21:59:18.460Z,100450.25
2019-04-07T22:01:59.301Z,100455.34
2019-04-07T22:12:42.333Z,100450.22
2019-04-07T22:15:24.848Z,100499.13
2019-04-07T22:17:46.287Z,100500.64
2019-04-07T22:20:08.432Z,100497.80
2019-04-07T22:22:51.349Z,100488.39
2019-04-07T22:25:07.148Z,100498.12
2019-04-07T22:27:29.233Z,100493.78
2019-04-07T22:29:51.227Z,100446.06
2019-04-07T22:32:33.698Z,100496.72
2019-04-07T22:34:54.950Z,100452.44
2019-04-07T22:37:18.623Z,100499.01
2019-04-07T22:40:02.079Z,100450.15
2019-04-07T22:42:45.451Z,100496.27
2019-04-07T22:45:28.603Z,100455.38
2019-04-07T22:48:08.560Z,100451.34
2019-04-07T22:50:30.527Z,100444.20
2019-04-07T22:53:12.919Z,100490.89
2019-04-07T22:55:36.003Z,100491.47
2019-04-07T22:58:18.130Z,100496.12
2019-04-07T23:00:54.263Z,100462.17
2019-04-07T23:03:15.680Z,100502.58
2019-04-07T23:05:37.392Z,100498.81
2019-04-07T23:08:20.845Z,100445.55
2019-04-07T23:11:03.094Z,100499.44
2019-04-07T23:13:45.071Z,100464.02
2019-04-07T23:16:12.875Z,100458.22
2019-04-07T23:18:49.954Z,100456.26
2019-04-07T23:21:32.585Z,100459.03
2019-04-07T23:23:53.854Z,100457.27
2019-04-07T23:26:15.962Z,100514.75
2019-04-07T23:28:58.443Z,100468.03
2019-04-07T23:31:19.959Z,100455.84
2019-04-07T23:33:41.762Z,100515.30
2019-04-07T23:36:24.340Z,100461.67
2019-04-07T23:38:45.643Z,100515.23
2019-04-07T23:41:06.907Z,100518.73
2019-04-07T23:43:29.004Z,100465.17
2019-04-07T23:46:20.711Z,100470.59
2019-04-07T23:48:54.270Z,100471.16
2019-04-07T23:51:16.382Z,100515.36
2019-04-07T23:54:18.475Z,100502.83
2019-04-07T23:56:41.498Z,100460.07
2019-04-07T23:59:16.969Z,100461.95
